createdAt,value
2019-01-25T00:01:09.223Z,2.94
2019-01-25T00:03:38.823Z,3.34
2019-01-25T00:06:09.153Z,3.13
2019-01-25T00:08:38.715Z,2.94
2019-01-25T00:11:08.174Z,2.82
2019-01-25T00:13:37.611Z,2.51
2019-01-25T00:16:07.134Z,2.51
2019-01-25T00:18:36.555Z,2.33
2019-01-25T00:21:06.063Z,2.67
2019-01-25T00:23:35.497Z,2.89
2019-01-25T00:26:05.460Z,3.31
2019-01-25T00:28:35.016Z,3.22
2019-01-25T00:31:04.335Z,3.35
2019-01-25T00:33:33.675Z,2.74
2019-01-25T00:36:03.025Z,2.98
2019-01-25T00:38:32.450Z,3.21
2019-01-25T00:41:01.799Z,2.96
2019-01-25T00:43:31.262Z,3.01
2019-01-25T00:46:00.797Z,3.41
2019-01-25T00:48:30.324Z,3.40
2019-01-25T00:51:00.036Z,3.40
2019-01-25T00:53:29.489Z,3.26
2019-01-25T00:55:58.914Z,3.59
2019-01-25T00:58:28.424Z,3.62
2019-01-25T01:00:57.766Z,4.18
2019-01-25T01:03:27.185Z,4.32
2019-01-25T01:05:56.619Z,3.71
2019-01-25T01:08:26.053Z,4.10
2019-01-25T01:10:55.417Z,4.16
2019-01-25T01:13:24.878Z,3.65
2019-01-25T01:15:54.241Z,3.63
2019-01-25T01:18:23.582Z,3.88
2019-01-25T01:20:52.984Z,4.16
2019-01-25T01:23:22.305Z,3.58
2019-01-25T01:25:51.713Z,3.47
2019-01-25T01:28:21.083Z,3.10
2019-01-25T01:30:50.461Z,3.12
2019-01-25T01:33:19.813Z,2.85
2019-01-25T01:35:49.118Z,3.29
2019-01-25T01:38:18.569Z,3.19
2019-01-25T01:40:47.939Z,3.41
2019-01-25T01:43:17.377Z,3.46
2019-01-25T01:45:46.819Z,3.66
2019-01-25T01:48:16.441Z,3.33
2019-01-25T01:50:45.816Z,3.26
2019-01-25T01:53:15.237Z,2.79
2019-01-25T01:55:44.658Z,3.39
2019-01-25T01:58:13.992Z,3.55
2019-01-25T02:00:43.344Z,3.88
2019-01-25T02:03:12.767Z,4.25
2019-01-25T02:05:42.139Z,3.74
2019-01-25T02:08:11.750Z,4.07
2019-01-25T02:10:41.182Z,3.91
2019-01-25T02:13:10.552Z,4.24
2019-01-25T02:15:39.915Z,4.46
2019-01-25T02:18:09.403Z,4.21
2019-01-25T02:20:38.870Z,4.47
2019-01-25T02:23:08.347Z,4.72
2019-01-25T02:25:37.735Z,4.79
2019-01-25T02:28:07.100Z,4.65
2019-01-25T02:30:36.489Z,3.99
2019-01-25T02:33:06.020Z,3.75
2019-01-25T02:35:35.761Z,4.16
2019-01-25T02:38:05.119Z,4.28
2019-01-25T02:40:39.059Z,3.85
2019-01-25T02:43:05.634Z,4.14
2019-01-25T02:45:35.069Z,3.53
2019-01-25T02:48:04.664Z,2.96
2019-01-25T02:50:34.027Z,2.84
2019-01-25T02:53:04.233Z,3.09
2019-01-25T02:55:33.622Z,3.24
2019-01-25T02:58:03.302Z,3.38
2019-01-25T03:00:32.784Z,3.40
2019-01-25T03:03:02.230Z,3.25
2019-01-25T03:05:31.628Z,3.67
2019-01-25T03:08:01.102Z,3.69
2019-01-25T03:10:30.735Z,3.36
2019-01-25T03:13:00.140Z,3.27
2019-01-25T03:15:29.573Z,3.57
2019-01-25T03:17:59.043Z,3.61
2019-01-25T03:20:28.495Z,3.19
2019-01-25T03:22:57.996Z,3.55
2019-01-25T03:25:27.974Z,3.37
2019-01-25T03:27:57.422Z,3.45
2019-01-25T03:30:27.340Z,3.22
2019-01-25T03:32:56.768Z,3.36
2019-01-25T03:35:26.959Z,3.80
2019-01-25T03:37:56.475Z,3.75
2019-01-25T03:40:27.521Z,3.84
2019-01-25T03:42:57.165Z,3.62
2019-01-25T03:45:27.117Z,3.95
2019-01-25T03:47:56.913Z,3.95
2019-01-25T03:50:28.653Z,3.98
2019-01-25T03:52:58.211Z,3.61
2019-01-25T03:55:28.279Z,3.55
2019-01-25T03:57:57.785Z,3.64
2019-01-25T04:00:28.788Z,3.60
2019-01-25T04:02:58.441Z,4.07
2019-01-25T04:05:27.957Z,4.10
2019-01-25T04:07:57.453Z,4.04
2019-01-25T04:10:28.113Z,3.60
2019-01-25T04:12:57.663Z,3.60
2019-01-25T04:15:32.242Z,3.84
2019-01-25T04:18:01.749Z,3.75
2019-01-25T04:20:31.219Z,3.45
2019-01-25T04:23:00.700Z,3.71
2019-01-25T04:25:30.124Z,3.63
2019-01-25T04:27:59.670Z,3.52
2019-01-25T04:30:30.584Z,3.75
2019-01-25T04:32:59.981Z,3.99
2019-01-25T04:35:29.429Z,3.83
2019-01-25T04:37:58.792Z,3.54
2019-01-25T04:40:28.313Z,3.48
2019-01-25T04:42:57.769Z,3.87
2019-01-25T04:45:27.216Z,3.95
2019-01-25T04:47:56.713Z,3.91
2019-01-25T04:50:26.675Z,3.51
2019-01-25T04:52:56.253Z,3.69
2019-01-25T04:55:30.990Z,3.81
2019-01-25T04:58:25.555Z,3.71
2019-01-25T05:00:55.277Z,3.50
2019-01-25T05:03:24.711Z,3.56
2019-01-25T05:05:54.113Z,3.83
2019-01-25T05:08:23.571Z,3.35
2019-01-25T05:10:52.961Z,3.40
2019-01-25T05:13:22.346Z,3.43
2019-01-25T05:15:51.828Z,3.67
2019-01-25T05:18:21.213Z,3.29
2019-01-25T05:20:50.907Z,3.67
2019-01-25T05:23:20.368Z,3.39
2019-01-25T05:25:49.749Z,3.96
2019-01-25T05:28:19.853Z,3.95
2019-01-25T05:30:57.897Z,4.01
2019-01-25T05:33:27.641Z,4.19
2019-01-25T05:35:56.996Z,4.27
2019-01-25T05:38:26.634Z,4.35
2019-01-25T05:40:56.089Z,3.98
2019-01-25T05:43:25.459Z,3.85
2019-01-25T05:45:54.937Z,3.92
2019-01-25T05:48:30.242Z,3.86
2019-01-25T05:51:05.745Z,4.10
2019-01-25T05:53:35.312Z,4.08
2019-01-25T05:56:06.119Z,3.91
2019-01-25T05:58:35.641Z,4.12
2019-01-25T06:01:05.203Z,3.90
2019-01-25T06:03:34.572Z,4.18
2019-01-25T06:06:06.423Z,3.97
2019-01-25T06:08:43.551Z,4.04
2019-01-25T06:11:11.594Z,3.66
2019-01-25T06:13:45.346Z,3.63
2019-01-25T06:16:16.530Z,3.58
2019-01-25T06:18:46.036Z,3.25
2019-01-25T06:21:15.579Z,3.52
2019-01-25T06:23:45.019Z,3.92
2019-01-25T06:26:14.755Z,3.50
2019-01-25T06:28:45.659Z,3.67
2019-01-25T06:31:18.776Z,3.38
2019-01-25T06:33:48.245Z,3.68
2019-01-25T06:36:17.655Z,3.52
2019-01-25T06:38:47.086Z,3.65
2019-01-25T06:41:16.635Z,3.41
2019-01-25T06:43:46.037Z,3.52
2019-01-25T06:46:15.578Z,4.05
2019-01-25T06:48:45.169Z,3.48
2019-01-25T06:51:14.554Z,3.85
2019-01-25T06:53:43.922Z,3.88
2019-01-25T06:56:13.333Z,3.76
2019-01-25T06:59:00.404Z,3.91
2019-01-25T07:01:38.312Z,3.93
2019-01-25T07:04:07.777Z,3.61
2019-01-25T07:06:37.156Z,3.67
2019-01-25T07:09:12.525Z,3.64
2019-01-25T07:11:42.496Z,3.63
2019-01-25T07:14:11.948Z,3.40
2019-01-25T07:16:41.366Z,3.89
2019-01-25T07:19:10.799Z,3.56
2019-01-25T07:21:40.342Z,3.52
2019-01-25T07:24:09.906Z,3.81
2019-01-25T07:26:39.357Z,3.72
2019-01-25T07:29:08.856Z,4.04
2019-01-25T07:31:38.624Z,4.08
2019-01-25T07:34:08.629Z,3.93
2019-01-25T07:36:38.023Z,3.69
2019-01-25T07:39:18.901Z,4.10
2019-01-25T07:41:48.308Z,4.11
2019-01-25T07:44:17.785Z,3.82
2019-01-25T07:46:47.185Z,3.92
2019-01-25T07:49:16.713Z,3.53
2019-01-25T07:51:46.221Z,3.84
2019-01-25T07:54:15.827Z,4.02
2019-01-25T07:56:45.345Z,4.09
2019-01-25T07:59:14.731Z,4.43
2019-01-25T08:01:44.230Z,4.31
2019-01-25T08:04:13.586Z,4.07
2019-01-25T08:06:42.980Z,3.49
2019-01-25T08:09:14.107Z,3.74
2019-01-25T08:11:43.548Z,4.13
2019-01-25T08:14:13.170Z,4.39
2019-01-25T08:16:43.076Z,4.56
2019-01-25T08:19:12.599Z,4.05
2019-01-25T08:21:42.207Z,3.84
2019-01-25T08:24:11.685Z,4.24
2019-01-25T08:26:41.087Z,3.60
2019-01-25T08:29:10.524Z,3.70
2019-01-25T08:31:40.214Z,3.78
2019-01-25T08:34:09.597Z,4.17
2019-01-25T08:36:39.059Z,3.26
2019-01-25T08:39:09.795Z,3.73
2019-01-25T08:41:39.294Z,4.23
2019-01-25T08:44:08.791Z,4.54
2019-01-25T08:46:39.205Z,4.62
2019-01-25T08:49:08.801Z,4.32
2019-01-25T08:51:38.479Z,4.29
2019-01-25T08:54:08.065Z,4.57
2019-01-25T08:56:37.492Z,4.82
2019-01-25T08:59:07.191Z,4.99
2019-01-25T09:01:36.659Z,4.84
2019-01-25T09:04:06.134Z,5.07
2019-01-25T09:06:35.608Z,4.58
2019-01-25T09:09:09.282Z,4.47
2019-01-25T09:11:39.017Z,4.11
2019-01-25T09:14:08.493Z,4.07
2019-01-25T09:16:37.884Z,4.54
2019-01-25T09:19:07.366Z,4.35
2019-01-25T09:21:36.790Z,3.90
2019-01-25T09:24:06.243Z,4.36
2019-01-25T09:26:35.633Z,4.23
2019-01-25T09:29:05.706Z,4.67
2019-01-25T09:31:35.608Z,4.55
2019-01-25T09:34:05.670Z,4.17
2019-01-25T09:36:35.185Z,5.07
2019-01-25T09:39:09.180Z,5.83
2019-01-25T09:41:39.613Z,5.66
2019-01-25T09:44:08.993Z,5.34
2019-01-25T09:46:38.370Z,5.35
2019-01-25T09:49:07.944Z,4.64
2019-01-25T09:51:37.423Z,5.76
2019-01-25T09:54:06.872Z,5.98
2019-01-25T09:56:36.400Z,6.06
2019-01-25T09:59:06.247Z,5.87
2019-01-25T10:01:35.759Z,5.55
2019-01-25T10:04:05.449Z,5.61
2019-01-25T10:06:34.953Z,6.53
2019-01-25T10:09:07.757Z,6.53
2019-01-25T10:11:37.202Z,5.44
2019-01-25T10:14:06.671Z,5.06
2019-01-25T10:16:36.254Z,4.54
2019-01-25T10:19:05.746Z,5.47
2019-01-25T10:21:35.225Z,4.56
2019-01-25T10:24:04.806Z,4.73
2019-01-25T10:26:34.336Z,4.48
2019-01-25T10:29:04.006Z,4.81
2019-01-25T10:31:33.475Z,5.26
2019-01-25T10:34:02.870Z,4.56
2019-01-25T10:36:32.505Z,5.03
2019-01-25T10:39:01.929Z,5.41
2019-01-25T10:41:31.342Z,5.79
2019-01-25T10:44:00.740Z,6.06
2019-01-25T10:46:30.185Z,6.79
2019-01-25T10:49:01.346Z,6.68
2019-01-25T10:51:30.872Z,6.55
2019-01-25T10:54:00.345Z,6.64
2019-01-25T10:56:29.899Z,6.35
2019-01-25T10:58:59.300Z,6.18
2019-01-25T11:01:28.744Z,6.50
2019-01-25T11:03:58.317Z,6.32
2019-01-25T11:06:27.720Z,6.17
2019-01-25T11:08:57.107Z,5.70
2019-01-25T11:11:26.578Z,5.51
2019-01-25T11:13:55.964Z,5.91
2019-01-25T11:16:25.408Z,5.44
2019-01-25T11:18:55.142Z,5.72
2019-01-25T11:21:24.645Z,5.66
2019-01-25T11:23:54.241Z,5.33
2019-01-25T11:26:23.761Z,5.09
2019-01-25T11:28:53.201Z,5.66
2019-01-25T11:31:22.626Z,6.32
2019-01-25T11:33:52.117Z,7.14
2019-01-25T11:36:21.567Z,6.16
2019-01-25T11:38:51.010Z,5.46
2019-01-25T11:41:20.480Z,6.57
2019-01-25T11:43:49.869Z,6.14
2019-01-25T11:46:19.349Z,6.40
2019-01-25T11:48:48.915Z,6.68
2019-01-25T11:51:19.913Z,6.61
2019-01-25T11:53:49.619Z,5.55
2019-01-25T11:56:19.053Z,5.49
2019-01-25T11:58:48.422Z,5.45
2019-01-25T12:01:17.923Z,5.32
2019-01-25T12:03:47.305Z,5.65
2019-01-25T12:06:17.262Z,5.72
2019-01-25T12:08:46.723Z,5.23
2019-01-25T12:11:16.197Z,5.41
2019-01-25T12:13:45.583Z,5.01
2019-01-25T12:16:15.001Z,5.27
2019-01-25T12:18:44.364Z,5.35
2019-01-25T12:21:13.727Z,5.24
2019-01-25T12:23:43.083Z,5.39
2019-01-25T12:26:12.822Z,5.75
2019-01-25T12:28:42.207Z,5.42
2019-01-25T12:31:11.713Z,5.34
2019-01-25T12:33:41.108Z,4.61
2019-01-25T12:36:10.476Z,4.65
2019-01-25T12:38:39.819Z,4.56
2019-01-25T12:41:09.323Z,4.86
2019-01-25T12:43:38.732Z,5.10
2019-01-25T12:46:08.376Z,5.55
2019-01-25T12:48:37.738Z,5.26
2019-01-25T12:51:20.883Z,5.41
2019-01-25T12:53:50.258Z,5.14
2019-01-25T12:56:19.746Z,5.08
2019-01-25T12:58:49.151Z,5.53
2019-01-25T13:01:20.228Z,5.08
2019-01-25T13:03:49.657Z,5.17
2019-01-25T13:06:19.127Z,4.95
2019-01-25T13:08:48.555Z,5.32
2019-01-25T13:11:18.142Z,5.59
2019-01-25T13:13:47.544Z,5.50
2019-01-25T13:16:16.933Z,5.12
2019-01-25T13:18:46.448Z,5.37
2019-01-25T13:21:15.856Z,6.04
2019-01-25T13:23:45.270Z,5.61
2019-01-25T13:26:14.759Z,5.32
2019-01-25T13:28:44.139Z,5.21
2019-01-25T13:31:13.602Z,4.93
2019-01-25T13:33:43.255Z,5.02
2019-01-25T13:36:13.639Z,5.07
2019-01-25T13:38:43.114Z,5.31
2019-01-25T13:41:12.625Z,4.97
2019-01-25T13:43:42.150Z,5.21
2019-01-25T13:46:11.523Z,5.16
2019-01-25T13:48:40.998Z,4.87
2019-01-25T13:51:10.477Z,5.56
2019-01-25T13:53:39.890Z,4.81
2019-01-25T13:56:09.277Z,4.50
2019-01-25T13:58:38.771Z,5.29
2019-01-25T14:01:08.256Z,4.60
2019-01-25T14:03:37.640Z,5.34
2019-01-25T14:06:07.150Z,4.91
2019-01-25T14:08:36.637Z,4.77
2019-01-25T14:11:06.094Z,5.35
2019-01-25T14:13:35.541Z,5.20
2019-01-25T14:16:05.194Z,5.03
2019-01-25T14:18:34.593Z,5.06
2019-01-25T14:21:04.430Z,4.92
2019-01-25T14:23:34.165Z,5.00
2019-01-25T14:26:03.708Z,5.20
2019-01-25T14:28:33.192Z,5.02
2019-01-25T14:31:02.649Z,5.06
2019-01-25T14:33:32.097Z,4.99
2019-01-25T14:36:01.601Z,5.28
2019-01-25T14:38:31.067Z,5.02
2019-01-25T14:41:00.545Z,4.76
2019-01-25T14:43:30.038Z,4.93
2019-01-25T14:45:59.618Z,4.90
2019-01-25T14:48:29.033Z,5.12
2019-01-25T14:50:58.464Z,4.88
2019-01-25T14:53:27.900Z,4.83
2019-01-25T14:55:57.286Z,4.91
2019-01-25T14:58:26.662Z,5.02
2019-01-25T15:00:57.676Z,4.91
2019-01-25T15:03:27.195Z,4.25
2019-01-25T15:05:56.618Z,4.69
2019-01-25T15:08:26.023Z,5.00
2019-01-25T15:10:55.419Z,4.93
2019-01-25T15:13:24.793Z,4.72
2019-01-25T15:15:54.186Z,4.55
2019-01-25T15:18:23.654Z,4.84
2019-01-25T15:20:53.191Z,5.12
2019-01-25T15:23:24.811Z,4.97
2019-01-25T15:25:54.261Z,4.93
2019-01-25T15:28:23.593Z,4.70
2019-01-25T15:30:53.020Z,4.44
2019-01-25T15:33:22.542Z,5.03
2019-01-25T15:35:51.997Z,4.62
2019-01-25T15:38:21.405Z,4.91
2019-01-25T15:40:50.925Z,4.59
2019-01-25T15:43:20.317Z,4.78
2019-01-25T15:45:50.154Z,4.75
2019-01-25T15:48:19.622Z,4.91
2019-01-25T15:50:49.050Z,4.29
2019-01-25T15:53:18.519Z,4.18
2019-01-25T15:55:48.102Z,4.10
2019-01-25T15:58:17.574Z,4.39
2019-01-25T16:00:47.016Z,4.49
2019-01-25T16:03:16.484Z,4.38
2019-01-25T16:05:45.899Z,4.20
2019-01-25T16:08:15.270Z,4.33
2019-01-25T16:10:44.621Z,4.18
2019-01-25T16:13:14.080Z,3.97
2019-01-25T16:15:43.464Z,4.19
2019-01-25T16:18:12.934Z,4.13
2019-01-25T16:20:42.332Z,4.37
2019-01-25T16:23:11.854Z,4.67
2019-01-25T16:25:41.567Z,4.56
2019-01-25T16:28:11.159Z,4.73
2019-01-25T16:30:40.635Z,4.28
2019-01-25T16:33:10.105Z,4.04
2019-01-25T16:35:39.656Z,4.00
2019-01-25T16:38:09.304Z,4.46
2019-01-25T16:40:38.668Z,4.70
2019-01-25T16:43:09.882Z,4.15
2019-01-25T16:45:43.814Z,4.51
2019-01-25T16:48:13.315Z,4.26
2019-01-25T16:50:42.790Z,4.42
2019-01-25T16:53:13.445Z,4.68
2019-01-25T16:55:43.052Z,4.55
2019-01-25T16:58:12.751Z,4.22
2019-01-25T17:00:44.411Z,4.59
2019-01-25T17:03:13.873Z,4.63
2019-01-25T17:05:43.352Z,4.43
2019-01-25T17:08:12.875Z,4.46
2019-01-25T17:10:42.322Z,4.56
2019-01-25T17:13:11.862Z,4.45
2019-01-25T17:15:41.393Z,4.71
2019-01-25T17:18:11.130Z,4.51
2019-01-25T17:20:41.069Z,4.87
2019-01-25T17:23:10.579Z,4.69
2019-01-25T17:25:39.929Z,4.75
2019-01-25T17:28:10.553Z,4.78
2019-01-25T17:30:40.511Z,4.70
2019-01-25T17:33:10.012Z,4.39
2019-01-25T17:35:39.444Z,4.58
2019-01-25T17:38:09.573Z,4.49
2019-01-25T17:40:46.946Z,4.44
2019-01-25T17:43:15.620Z,4.60
2019-01-25T17:45:45.120Z,4.55
2019-01-25T17:48:14.626Z,4.87
2019-01-25T17:50:44.073Z,4.58
2019-01-25T17:53:13.755Z,4.51
2019-01-25T17:55:43.244Z,4.66
2019-01-25T17:58:12.683Z,4.51
2019-01-25T18:00:54.089Z,4.37
2019-01-25T18:03:23.682Z,4.43
2019-01-25T18:05:53.108Z,4.13
2019-01-25T18:08:22.589Z,4.36
2019-01-25T18:10:52.009Z,4.62
2019-01-25T18:13:21.396Z,4.74
2019-01-25T18:15:50.854Z,4.35
2019-01-25T18:18:20.312Z,4.59
2019-01-25T18:20:49.766Z,4.66
2019-01-25T18:23:19.293Z,4.35
2019-01-25T18:26:01.191Z,4.39
2019-01-25T18:28:37.697Z,4.49
2019-01-25T18:31:19.389Z,4.76
2019-01-25T18:33:48.892Z,4.58
2019-01-25T18:36:18.373Z,4.80
2019-01-25T18:38:47.795Z,4.57
2019-01-25T18:41:17.402Z,4.90
2019-01-25T18:43:46.854Z,4.84
2019-01-25T18:46:16.277Z,4.49
2019-01-25T18:48:46.427Z,4.52
2019-01-25T18:51:15.831Z,4.32
2019-01-25T18:53:45.732Z,4.63
2019-01-25T18:56:16.627Z,4.43
2019-01-25T18:58:46.162Z,4.66
2019-01-25T19:01:15.569Z,4.65
2019-01-25T19:03:44.942Z,4.56
2019-01-25T19:06:15.614Z,4.57
2019-01-25T19:08:45.051Z,4.74
2019-01-25T19:11:14.524Z,4.63
2019-01-25T19:13:44.013Z,4.59
2019-01-25T19:16:13.450Z,4.58
2019-01-25T19:18:42.944Z,4.40
2019-01-25T19:21:12.311Z,4.69
2019-01-25T19:23:41.715Z,4.65
2019-01-25T19:26:11.150Z,4.50
2019-01-25T19:28:40.612Z,4.56
2019-01-25T19:31:10.021Z,4.56
2019-01-25T19:33:39.494Z,4.76
2019-01-25T19:36:08.930Z,4.92
2019-01-25T19:38:38.368Z,4.72
2019-01-25T19:41:07.777Z,4.82
2019-01-25T19:43:37.175Z,4.51
2019-01-25T19:46:06.875Z,4.53
2019-01-25T19:48:36.599Z,4.69
2019-01-25T19:51:06.154Z,4.73
2019-01-25T19:53:35.622Z,4.82
2019-01-25T19:56:05.520Z,4.61
2019-01-25T19:58:35.013Z,5.01
2019-01-25T20:01:04.536Z,4.69
2019-01-25T20:03:33.981Z,4.62
2019-01-25T20:06:03.411Z,4.52
2019-01-25T20:08:32.858Z,4.64
2019-01-25T20:11:02.354Z,4.74
2019-01-25T20:13:31.754Z,4.73
2019-01-25T20:16:01.334Z,4.66
2019-01-25T20:18:30.793Z,4.70
2019-01-25T20:21:00.281Z,4.90
2019-01-25T20:23:29.680Z,4.73
2019-01-25T20:25:59.136Z,4.80
2019-01-25T20:28:28.506Z,4.82
2019-01-25T20:30:58.000Z,4.89
2019-01-25T20:33:27.577Z,4.94
2019-01-25T20:35:57.049Z,4.41
2019-01-25T20:38:26.409Z,4.63
2019-01-25T20:40:55.809Z,4.49
2019-01-25T20:43:25.250Z,4.69
2019-01-25T20:45:54.709Z,4.77
2019-01-25T20:48:24.125Z,4.39
2019-01-25T20:50:54.384Z,4.65
2019-01-25T20:53:23.862Z,4.71
2019-01-25T20:55:53.285Z,4.77
2019-01-25T20:58:22.748Z,4.67
2019-01-25T21:00:52.288Z,4.48
2019-01-25T21:03:21.682Z,4.78
2019-01-25T21:05:51.189Z,4.63
2019-01-25T21:08:20.658Z,4.46
2019-01-25T21:10:50.057Z,4.69
2019-01-25T21:13:19.501Z,4.44
2019-01-25T21:15:49.862Z,4.38
2019-01-25T21:18:19.751Z,4.74
2019-01-25T21:20:49.477Z,4.68
2019-01-25T21:23:18.927Z,4.48
2019-01-25T21:25:48.625Z,4.57
2019-01-25T21:28:19.051Z,4.29
2019-01-25T21:30:48.500Z,4.23
2019-01-25T21:33:18.292Z,4.37
2019-01-25T21:35:47.674Z,4.47
2019-01-25T21:38:17.260Z,4.52
2019-01-25T21:40:46.989Z,4.24
2019-01-25T21:43:16.328Z,4.07
2019-01-25T21:45:45.772Z,4.35
2019-01-25T21:48:16.787Z,4.16
2019-01-25T21:50:47.203Z,4.29
2019-01-25T21:53:16.682Z,4.68
2019-01-25T21:55:46.190Z,4.24
2019-01-25T21:58:15.662Z,4.49
2019-01-25T22:00:45.086Z,4.28
2019-01-25T22:03:14.657Z,4.54
2019-01-25T22:05:44.051Z,4.42
2019-01-25T22:08:13.557Z,4.63
2019-01-25T22:10:47.831Z,4.54
2019-01-25T22:13:17.349Z,4.68
2019-01-25T22:15:51.107Z,4.33
2019-01-25T22:18:17.890Z,4.47
2019-01-25T22:20:47.247Z,4.53
2019-01-25T22:23:17.095Z,4.29
2019-01-25T22:25:46.612Z,4.25
2019-01-25T22:28:15.999Z,4.52
2019-01-25T22:30:45.430Z,4.59
2019-01-25T22:33:14.835Z,4.54
2019-01-25T22:35:44.272Z,4.64
2019-01-25T22:38:13.665Z,4.63
2019-01-25T22:40:43.116Z,4.53
2019-01-25T22:43:12.579Z,4.47
2019-01-25T22:45:42.200Z,4.43
2019-01-25T22:48:11.557Z,4.27
2019-01-25T22:50:40.988Z,4.23
2019-01-25T22:53:10.744Z,3.88
2019-01-25T22:55:41.802Z,4.18
2019-01-25T22:58:11.374Z,4.47
2019-01-25T23:01:17.996Z,4.71
2019-01-25T23:04:28.626Z,4.33
2019-01-25T23:07:11.029Z,4.65
2019-01-25T23:09:49.655Z,4.64
2019-01-25T23:12:19.232Z,4.60
2019-01-25T23:14:48.776Z,4.25
2019-01-25T23:17:18.304Z,4.47
2019-01-25T23:19:47.810Z,4.61
2019-01-25T23:22:17.484Z,4.55
2019-01-25T23:24:46.846Z,4.51
2019-01-25T23:27:16.309Z,4.20
2019-01-25T23:29:45.717Z,4.65
2019-01-25T23:32:15.159Z,4.62
2019-01-25T23:34:44.526Z,4.86
2019-01-25T23:37:13.983Z,4.63
2019-01-25T23:39:43.459Z,4.54
2019-01-25T23:42:12.828Z,4.19
2019-01-25T23:44:42.276Z,4.53
2019-01-25T23:47:11.763Z,4.55
2019-01-25T23:49:41.158Z,4.39
2019-01-25T23:52:10.618Z,4.65
2019-01-25T23:54:40.026Z,4.23
2019-01-25T23:57:09.391Z,4.58
2019-01-25T23:59:38.862Z,4.78
